.
WxDataArchive / Data Records for 2012-06-20
2012-06-19 June 2012 2012-06-21

Data Records for Wednesday, 20 June 2012

Time	Temp	Chill	HIndex	Humid	Dewpt	 Wind 	HiWind	WindDir	Rain 	Barom 
-----	----	-----	------	-----	-----	------	------	-------	-----	----- 
00:00	79.0	79.0	80.2	53	60.4	0	1	248	0.00	30.014 
00:05	78.8	78.8	80.0	53	60.2	0	1	248	0.00	30.014 
00:10	78.8	78.8	80.1	54	60.7	0	1	248	0.00	30.014 
00:15	78.6	78.6	79.9	54	60.5	0	0	---	0.00	30.014 
00:20	78.6	78.6	79.9	54	60.5	0	1	248	0.00	30.014 
00:25	78.5	78.5	79.8	54	60.4	0	1	248	0.00	30.014 
00:30	78.5	78.5	79.9	55	61.0	0	1	248	0.00	30.015 
00:35	78.5	78.5	79.9	55	61.0	0	1	248	0.00	30.015 
00:40	78.5	78.5	79.9	55	61.0	0	1	248	0.00	30.015 
00:45	78.5	78.5	79.9	55	61.0	0	1	248	0.00	30.015 
00:50	78.3	78.3	79.7	55	60.8	0	1	248	0.00	30.015 
00:55	78.3	78.3	79.7	55	60.8	0	2	248	0.00	30.015 
01:00	78.1	78.1	79.6	56	61.1	0	1	248	0.00	30.013 
01:05	77.9	77.9	79.4	56	60.9	0	1	248	0.00	30.013 
01:10	77.9	77.9	79.4	56	60.9	0	1	248	0.00	30.013 
01:15	77.7	77.7	79.3	56	60.7	0	1	248	0.00	30.010 
01:20	77.7	77.7	79.3	56	60.7	0	1	248	0.00	30.010 
01:25	77.7	77.7	79.3	56	60.7	0	1	248	0.00	30.010 
01:30	77.7	77.7	79.3	56	60.7	0	1	248	0.00	30.010 
01:35	77.7	77.7	79.3	56	60.7	0	1	248	0.00	30.010 
01:40	77.7	77.7	79.3	56	60.7	0	1	248	0.00	30.010 
01:45	77.6	77.6	79.2	57	61.1	0	2	248	0.00	30.009 
01:50	77.6	77.6	79.2	57	61.1	0	1	248	0.00	30.009 
01:55	77.4	77.4	79.1	57	61.0	0	1	248	0.00	30.009 
02:00	77.6	77.6	79.2	57	61.1	0	1	248	0.00	30.011 
02:05	77.4	77.4	79.1	57	61.0	0	1	248	0.00	30.011 
02:10	77.4	77.4	79.1	57	61.0	0	1	248	0.00	30.011 
02:15	77.4	77.4	79.1	57	61.0	0	1	248	0.00	30.013 
02:20	77.4	77.4	79.1	57	61.0	0	1	248	0.00	30.013 
02:25	77.4	77.4	79.1	57	61.0	0	2	248	0.00	30.013 
02:30	77.4	77.4	79.1	58	61.4	0	1	248	0.00	30.011 
02:35	77.2	77.2	78.9	58	61.3	0	1	248	0.00	30.011 
02:40	77.0	77.0	78.8	58	61.1	0	2	248	0.00	30.011 
02:45	77.0	77.0	78.8	58	61.1	0	1	248	0.00	30.009 
02:50	76.8	76.8	78.6	59	61.4	0	1	248	0.00	30.009 
02:55	76.8	76.8	78.6	59	61.4	0	2	248	0.00	30.009 
03:00	77.0	77.0	78.8	58	61.1	0	2	248	0.00	30.009 
03:05	77.0	77.0	78.8	58	61.1	0	1	248	0.00	30.009 
03:10	76.8	76.8	78.6	59	61.4	0	2	248	0.00	30.009 
03:15	76.8	76.8	78.6	59	61.4	0	1	248	0.00	30.009 
03:20	76.7	76.7	78.5	59	61.3	0	1	248	0.00	30.009 
03:25	76.7	76.7	78.5	59	61.3	0	2	248	0.00	30.009 
03:30	76.7	76.7	78.5	59	61.3	0	1	248	0.00	30.009 
03:35	76.5	76.5	78.4	60	61.6	0	1	248	0.00	30.009 
03:40	76.3	76.3	78.2	60	61.4	0	1	248	0.00	30.009 
03:45	76.1	76.1	78.1	61	61.7	0	1	248	0.00	30.010 
03:50	76.1	76.1	78.1	61	61.7	0	2	248	0.00	30.010 
03:55	76.1	76.1	78.1	61	61.7	0	3	248	0.00	30.010 
04:00	76.3	76.3	78.2	60	61.4	0	2	248	0.00	30.010 
04:05	76.3	76.3	78.2	60	61.4	0	1	248	0.00	30.010 
04:10	76.3	76.3	78.2	61	61.8	0	2	248	0.00	30.010 
04:15	76.1	76.1	78.1	61	61.7	0	2	248	0.00	30.010 
04:20	76.0	76.0	78.0	61	61.6	0	3	248	0.00	30.010 
04:25	76.0	76.0	78.0	61	61.6	0	1	248	0.00	30.010 
04:30	75.8	75.8	77.8	61	61.4	0	1	315	0.00	30.011 
04:35	75.8	75.8	77.8	62	61.8	0	1	315	0.00	30.011 
04:40	75.6	75.6	77.7	62	61.6	0	1	315	0.00	30.011 
04:45	75.4	75.4	77.5	62	61.5	0	1	315	0.00	30.014 
04:50	75.1	75.1	77.3	63	61.6	0	0	---	0.00	30.014 
04:55	74.7	74.7	74.7	64	61.7	0	1	315	0.00	30.014 
05:00	74.6	74.6	74.6	64	61.6	0	0	---	0.00	30.022 
05:05	74.2	74.2	74.2	65	61.7	0	0	---	0.00	30.022 
05:10	74.0	74.0	74.0	65	61.5	0	0	---	0.00	30.022 
05:15	73.7	73.7	73.7	66	61.6	0	0	---	0.00	30.028 
05:20	73.5	73.5	73.5	66	61.4	0	0	---	0.00	30.028 
05:25	73.2	73.2	73.2	67	61.6	0	0	---	0.00	30.028 
05:30	73.0	73.0	73.0	68	61.8	0	0	---	0.00	30.030 
05:35	73.0	73.0	73.0	68	61.8	0	0	---	0.00	30.030 
05:40	72.7	72.7	72.7	68	61.5	0	0	---	0.00	30.030 
05:45	72.5	72.5	72.5	69	61.7	0	0	---	0.00	30.034 
05:50	72.3	72.3	72.3	69	61.5	0	0	---	0.00	30.034 
05:55	72.3	72.3	72.3	70	62.0	0	1	315	0.00	30.034 
06:00	72.3	72.3	72.3	70	62.0	0	1	315	0.00	30.043 
06:05	72.3	72.3	72.3	70	62.0	0	0	---	0.00	30.043 
06:10	72.3	72.3	72.3	70	62.0	0	0	---	0.00	30.043 
06:15	72.3	72.3	72.3	70	62.0	0	1	315	0.00	30.047 
06:20	72.1	72.1	72.1	70	61.8	0	0	---	0.00	30.047 
06:25	72.1	72.1	72.1	70	61.8	0	0	---	0.00	30.047 
06:30	72.0	72.0	72.0	71	62.1	0	0	---	0.00	30.055 
06:35	72.0	72.0	72.0	71	62.1	0	0	---	0.00	30.055 
06:40	71.8	71.8	71.8	72	62.3	0	0	---	0.00	30.055 
06:45	71.8	71.8	71.8	72	62.3	0	1	315	0.00	30.061 
06:50	71.8	71.8	71.8	72	62.3	0	0	---	0.00	30.061 
06:55	71.8	71.8	71.8	73	62.7	0	0	---	0.00	30.061 
07:00	72.0	72.0	72.0	73	62.9	0	0	---	0.00	30.064 
07:05	72.1	72.1	72.1	72	62.6	0	1	315	0.00	30.064 
07:10	72.3	72.3	72.3	72	62.8	0	1	315	0.00	30.064 
07:15	72.7	72.7	72.7	72	63.1	0	1	315	0.00	30.070 
07:20	72.8	72.8	72.8	72	63.2	0	1	315	0.00	30.070 
07:25	73.3	73.3	73.3	71	63.3	0	1	315	0.00	30.070 
07:30	73.9	73.9	73.9	70	63.5	0	1	315	0.00	30.077 
07:35	74.4	74.4	74.4	69	63.5	0	1	315	0.00	30.077 
07:40	74.9	74.9	74.9	67	63.2	0	2	315	0.00	30.077 
07:45	75.4	75.4	77.3	66	63.2	0	1	315	0.00	30.077 
07:50	75.8	75.8	77.7	65	63.2	0	2	315	0.00	30.077 
07:55	76.3	76.3	78.2	64	63.2	0	1	315	0.00	30.077 
08:00	76.8	76.8	78.6	63	63.2	0	1	315	0.00	30.075 
08:05	77.4	77.4	79.2	62	63.3	1	2	315	0.00	30.075 
08:10	77.7	77.7	79.4	61	63.2	0	2	315	0.00	30.075 
08:15	78.1	78.1	79.8	60	63.1	1	3	338	0.00	30.073 
08:20	78.5	78.5	80.2	60	63.4	0	1	315	0.00	30.073 
08:25	79.0	79.0	80.5	58	62.9	1	3	225	0.00	30.073 
08:30	79.6	79.6	81.1	57	63.0	1	2	225	0.00	30.075 
08:35	79.9	79.9	81.3	56	62.8	1	4	225	0.00	30.075 
08:40	80.3	80.3	81.6	55	62.6	1	5	248	0.00	30.075 
08:45	80.7	80.7	81.9	54	62.5	1	2	248	0.00	30.075 
08:50	81.1	81.1	82.2	53	62.3	1	4	248	0.00	30.075 
08:55	81.4	81.4	82.4	52	62.1	1	3	248	0.00	30.075 
09:00	81.6	81.6	82.6	52	62.2	1	4	248	0.00	30.076 
09:05	82.0	82.0	82.9	51	62.1	1	3	248	0.00	30.076 
09:10	82.4	82.4	83.4	51	62.4	0	2	248	0.00	30.076 
09:15	83.0	83.0	83.7	49	61.8	2	3	248	0.00	30.077 
09:20	83.4	83.4	84.0	48	61.6	2	4	248	0.00	30.077 
09:25	83.4	83.4	83.8	47	61.0	2	4	270	0.00	30.077 
09:30	83.8	83.8	84.1	46	60.8	1	3	248	0.00	30.075 
09:35	84.1	84.1	84.6	47	61.7	1	3	248	0.00	30.075 
09:40	84.3	84.3	84.7	46	61.2	2	4	248	0.00	30.075 
09:45	84.7	84.7	85.0	45	61.0	1	3	248	0.00	30.076 
09:50	84.9	84.9	85.2	45	61.2	1	3	248	0.00	30.076 
09:55	85.5	85.5	85.5	43	60.4	1	4	270	0.00	30.076 
10:00	85.9	85.9	86.0	43	60.8	2	4	270	0.00	30.075 
10:05	86.1	86.1	86.0	42	60.3	2	4	248	0.00	30.075 
10:10	86.3	86.3	86.5	43	61.1	2	4	248	0.00	30.075 
10:15	86.3	86.3	86.0	41	59.8	2	6	270	0.00	30.078 
10:20	87.0	87.0	86.6	40	59.7	1	3	248	0.00	30.078 
10:25	87.2	87.2	86.6	39	59.2	2	4	248	0.00	30.078 
10:30	87.4	87.4	87.1	40	60.1	2	4	248	0.00	30.077 
10:35	87.8	87.8	87.6	40	60.4	1	4	270	0.00	30.077 
10:40	88.0	88.0	87.9	40	60.6	1	3	270	0.00	30.077 
10:45	88.4	88.4	88.2	39	60.3	2	4	292	0.00	30.074 
10:50	87.6	87.6	87.4	40	60.3	3	7	270	0.00	30.074 
10:55	87.4	87.4	87.1	40	60.1	3	5	270	0.00	30.074 
11:00	87.6	87.6	86.9	38	58.8	2	5	270	0.00	30.075 
11:05	87.8	87.8	87.4	39	59.7	2	5	248	0.00	30.075 
11:10	88.6	88.6	87.4	35	57.4	2	5	270	0.00	30.075 
11:15	89.0	89.0	88.1	36	58.5	2	5	270	0.00	30.074 
11:20	89.5	89.5	89.1	37	59.7	2	4	270	0.00	30.074 
11:25	89.5	89.5	88.5	35	58.2	2	5	248	0.00	30.074 
11:30	89.5	89.5	88.0	33	56.6	2	6	270	0.00	30.074 
11:35	89.3	89.3	87.8	33	56.4	3	6	270	0.00	30.074 
11:40	89.0	89.0	87.4	33	56.1	2	6	248	0.00	30.074 
11:45	89.5	89.5	88.0	33	56.6	2	4	270	0.00	30.066 
11:50	89.9	89.9	88.8	34	57.7	2	6	248	0.00	30.066 
11:55	90.1	90.1	88.5	32	56.2	3	5	248	0.00	30.066 
12:00	90.5	90.5	88.7	31	55.7	2	7	0	0.00	30.067 
12:05	90.5	90.5	88.5	30	54.8	2	5	270	0.00	30.067 
12:10	90.7	90.7	89.0	31	55.9	3	7	248	0.00	30.067 
12:15	91.2	91.2	89.6	31	56.3	2	4	248	0.00	30.061 
12:20	91.4	91.4	89.1	28	53.7	2	6	270	0.00	30.061 
12:25	90.7	90.7	88.5	29	54.0	4	9	248	0.00	30.061 
12:30	90.5	90.5	88.5	30	54.8	3	9	270	0.00	30.061 
12:35	91.0	91.0	88.9	29	54.3	3	6	248	0.00	30.061 
12:40	91.2	91.2	89.4	30	55.4	3	7	248	0.00	30.061 
12:45	91.4	91.4	89.1	28	53.7	2	4	248	0.00	30.060 
12:50	91.4	91.4	89.6	30	55.6	2	6	270	0.00	30.060 
12:55	91.2	91.2	89.1	29	54.5	4	10	270	0.00	30.060 
13:00	91.4	91.4	89.1	28	53.7	3	6	270	0.00	30.058 
13:05	91.6	91.6	89.4	28	53.8	2	6	270	0.00	30.058 
13:10	91.6	91.6	89.4	28	53.8	2	4	248	0.00	30.058 
13:15	91.4	91.4	89.1	28	53.7	4	8	270	0.00	30.053 
13:20	91.4	91.4	89.6	30	55.6	3	5	270	0.00	30.053 
13:25	91.6	91.6	89.8	30	55.7	2	4	270	0.00	30.053 
13:30	92.1	92.1	90.5	30	56.2	2	5	270	0.00	30.046 
13:35	92.1	92.1	90.8	31	57.1	2	5	270	0.00	30.046 
13:40	92.1	92.1	90.2	29	55.2	4	7	270	0.00	30.046 
13:45	91.8	91.8	90.1	30	55.9	2	5	270	0.00	30.038 
13:50	92.3	92.3	91.0	31	57.2	2	6	270	0.00	30.038 
13:55	92.5	92.5	91.0	30	56.5	2	7	270	0.00	30.038 
14:00	92.7	92.7	90.7	28	54.8	2	5	270	0.00	30.037 
14:05	92.7	92.7	90.7	28	54.8	2	5	270	0.00	30.037 
14:10	92.9	92.9	90.9	28	54.9	3	6	270	0.00	30.037 
14:15	92.9	92.9	90.9	28	54.9	3	6	248	0.00	30.029 
14:20	92.7	92.7	90.7	28	54.8	4	7	270	0.00	30.029 
14:25	92.9	92.9	90.7	27	53.9	2	4	270	0.00	30.029 
14:30	93.2	93.2	91.0	27	54.2	3	5	270	0.00	30.027 
14:35	93.2	93.2	90.8	26	53.2	2	6	270	0.00	30.027 
14:40	93.2	93.2	91.0	27	54.2	2	6	248	0.00	30.027 
14:45	93.6	93.6	91.5	27	54.5	2	5	248	0.00	30.024 
14:50	93.8	93.8	91.8	27	54.7	2	4	292	0.00	30.024 
14:55	94.0	94.0	91.8	26	53.8	2	4	270	0.00	30.024 
15:00	94.3	94.3	92.1	26	54.1	2	5	270	0.00	30.019 
15:05	94.0	94.0	92.1	27	54.9	2	6	270	0.00	30.019 
15:10	94.0	94.0	92.4	28	55.9	2	5	270	0.00	30.019 
15:15	94.0	94.0	91.8	26	53.8	2	4	270	0.00	30.011 
15:20	94.5	94.5	92.1	25	53.2	2	7	270	0.00	30.011 
15:25	94.9	94.9	92.6	25	53.5	3	6	248	0.00	30.011 
15:30	94.9	94.9	92.9	26	54.6	2	7	270	0.00	30.007 
15:35	94.7	94.7	93.0	27	55.5	2	6	270	0.00	30.007 
15:40	94.9	94.9	92.9	26	54.6	1	6	248	0.00	30.007 
15:45	95.1	95.1	92.9	25	53.7	1	4	270	0.00	30.002 
15:50	94.9	94.9	92.9	26	54.6	2	4	270	0.00	30.002 
15:55	94.7	94.7	92.7	26	54.4	2	7	270	0.00	30.002 
16:00	94.3	94.3	92.1	26	54.1	2	5	270	0.00	29.997 
16:05	94.3	94.3	92.4	27	55.1	1	4	270	0.00	29.997 
16:10	94.7	94.7	92.7	26	54.4	2	6	270	0.00	29.997 
16:15	94.7	94.7	93.0	27	55.5	2	6	248	0.00	29.994 
16:20	94.7	94.7	92.7	26	54.4	1	3	248	0.00	29.994 
16:25	94.7	94.7	93.0	27	55.5	2	6	248	0.00	29.994 
16:30	94.7	94.7	92.7	26	54.4	2	6	270	0.00	29.985 
16:35	94.5	94.5	92.7	27	55.3	2	5	292	0.00	29.985 
16:40	94.5	94.5	92.7	27	55.3	1	3	270	0.00	29.985 
16:45	94.7	94.7	93.0	27	55.5	2	5	90	0.00	29.980 
16:50	94.7	94.7	92.7	26	54.4	2	6	270	0.00	29.980 
16:55	94.7	94.7	92.7	26	54.4	2	4	248	0.00	29.980 
17:00	94.9	94.9	92.9	26	54.6	1	5	292	0.00	29.979 
17:05	94.5	94.5	92.7	27	55.3	2	4	292	0.00	29.979 
17:10	94.7	94.7	93.0	27	55.5	1	3	270	0.00	29.979 
17:15	94.7	94.7	92.7	26	54.4	3	6	270	0.00	29.979 
17:20	94.5	94.5	92.4	26	54.3	2	5	292	0.00	29.979 
17:25	94.3	94.3	92.4	27	55.1	2	5	248	0.00	29.979 
17:30	94.3	94.3	92.1	26	54.1	2	7	248	0.00	29.970 
17:35	94.0	94.0	91.8	26	53.8	2	7	270	0.00	29.970 
17:40	93.8	93.8	91.8	27	54.7	2	6	270	0.00	29.970 
17:45	93.8	93.8	91.8	27	54.7	2	5	248	0.00	29.970 
17:50	93.8	93.8	91.8	27	54.7	2	5	248	0.00	29.970 
17:55	93.6	93.6	91.8	28	55.5	2	5	270	0.00	29.970 
18:00	93.4	93.4	91.6	28	55.4	1	4	292	0.00	29.968 
18:05	93.4	93.4	91.3	27	54.4	2	5	292	0.00	29.968 
18:10	93.2	93.2	91.3	28	55.2	2	7	270	0.00	29.968 
18:15	92.9	92.9	90.7	27	53.9	2	4	270	0.00	29.964 
18:20	92.9	92.9	90.9	28	54.9	2	4	270	0.00	29.964 
18:25	92.7	92.7	90.7	28	54.8	2	5	270	0.00	29.964 
18:30	92.7	92.7	90.7	28	54.8	1	3	270	0.00	29.961 
18:35	92.5	92.5	90.2	27	53.6	2	6	248	0.00	29.961 
18:40	92.3	92.3	89.9	27	53.4	1	3	248	0.00	29.961 
18:45	92.3	92.3	90.2	28	54.4	1	4	225	0.00	29.954 
18:50	92.3	92.3	89.9	27	53.4	2	6	90	0.00	29.954 
18:55	92.1	92.1	90.0	28	54.3	1	4	270	0.00	29.954 
19:00	92.1	92.1	90.2	29	55.2	1	3	292	0.00	29.955 
19:05	92.1	92.1	90.0	28	54.3	1	4	270	0.00	29.955 
19:10	92.1	92.1	90.0	28	54.3	2	5	270	0.00	29.955 
19:15	91.6	91.6	89.6	29	54.8	2	4	270	0.00	29.950 
19:20	91.4	91.4	89.4	29	54.6	1	4	248	0.00	29.950 
19:25	91.4	91.4	89.4	29	54.6	1	4	248	0.00	29.950 
19:30	91.2	91.2	89.1	29	54.5	1	4	248	0.00	29.944 
19:35	91.0	91.0	88.9	29	54.3	1	4	248	0.00	29.944 
19:40	90.7	90.7	88.5	29	54.0	1	5	315	0.00	29.944 
19:45	90.5	90.5	88.3	29	53.9	1	5	270	0.00	29.945 
19:50	90.5	90.5	88.5	30	54.8	1	3	270	0.00	29.945 
19:55	90.3	90.3	88.3	30	54.6	1	3	248	0.00	29.945 
20:00	90.1	90.1	88.0	30	54.4	0	3	248	0.00	29.941 
20:05	89.9	89.9	87.8	30	54.3	1	5	248	0.00	29.941 
20:10	89.9	89.9	88.0	31	55.2	1	4	270	0.00	29.941 
20:15	89.7	89.7	87.8	31	55.0	1	2	270	0.00	29.935 
20:20	89.5	89.5	87.6	31	54.8	1	3	248	0.00	29.935 
20:25	89.5	89.5	87.6	31	54.8	1	3	248	0.00	29.935 
20:30	89.3	89.3	87.3	31	54.7	1	4	225	0.00	29.935 
20:35	89.0	89.0	87.0	31	54.4	1	4	270	0.00	29.935 
20:40	88.8	88.8	86.8	31	54.2	1	3	292	0.00	29.935 
20:45	88.6	88.6	86.7	32	54.9	0	2	292	0.00	29.934 
20:50	88.2	88.2	86.5	33	55.4	0	2	292	0.00	29.934 
20:55	88.0	88.0	86.5	34	56.1	0	3	292	0.00	29.934 
21:00	87.8	87.8	86.3	34	55.9	0	2	292	0.00	29.933 
21:05	87.6	87.6	86.2	35	56.5	0	2	292	0.00	29.933 
21:10	87.4	87.4	86.0	35	56.3	0	3	292	0.00	29.933 
21:15	87.2	87.2	85.8	35	56.2	1	3	292	0.00	29.930 
21:20	86.7	86.7	85.4	36	56.5	0	1	292	0.00	29.930 
21:25	86.5	86.5	85.2	36	56.3	0	1	292	0.00	29.930 
21:30	86.3	86.3	85.2	37	56.9	0	1	292	0.00	29.930 
21:35	85.9	85.9	84.7	37	56.6	0	1	292	0.00	29.930 
21:40	85.7	85.7	84.7	38	57.1	0	1	292	0.00	29.930 
21:45	85.3	85.3	84.3	38	56.8	0	2	292	0.00	29.931 
21:50	84.9	84.9	83.9	38	56.4	0	2	292	0.00	29.931 
21:55	84.9	84.9	83.9	38	56.4	0	1	292	0.00	29.931 
22:00	84.7	84.7	83.8	39	57.0	0	1	292	0.00	29.933 
22:05	84.5	84.5	83.6	39	56.8	0	1	292	0.00	29.933 
22:10	84.3	84.3	83.4	39	56.6	0	1	292	0.00	29.933 
22:15	84.1	84.1	83.4	40	57.1	0	0	---	0.00	29.931 
22:20	83.8	83.8	83.1	40	56.9	0	0	---	0.00	29.931 
22:25	83.4	83.4	82.9	41	57.2	0	0	---	0.00	29.931 
22:30	83.0	83.0	82.6	42	57.5	0	1	292	0.00	29.932 
22:35	82.6	82.6	82.4	43	57.8	0	1	292	0.00	29.932 
22:40	82.4	82.4	82.2	43	57.6	0	1	292	0.00	29.932 
22:45	82.0	82.0	81.9	44	57.9	0	0	---	0.00	29.931 
22:50	81.6	81.6	81.6	44	57.5	0	0	---	0.00	29.931 
22:55	81.4	81.4	81.5	45	58.0	0	1	292	0.00	29.931 
23:00	81.1	81.1	81.3	45	57.7	0	1	292	0.00	29.920 
23:05	80.9	80.9	81.2	46	58.2	0	1	292	0.00	29.920 
23:10	80.7	80.7	81.0	46	58.0	0	1	292	0.00	29.920 
23:15	80.5	80.5	80.8	46	57.8	0	1	292	0.00	29.915 
23:20	80.3	80.3	80.7	46	57.6	0	1	292	0.00	29.915 
23:25	80.3	80.3	80.7	46	57.6	0	1	292	0.00	29.915 
23:30	80.3	80.3	80.7	46	57.6	0	2	292	0.00	29.931 
23:35	80.3	80.3	80.8	47	58.2	0	2	292	0.00	29.931 
23:40	80.5	80.5	80.9	47	58.4	0	1	292	0.00	29.931 
23:45	80.5	80.5	80.9	47	58.4	0	3	292	0.00	29.923 
23:50	80.5	80.5	81.0	48	59.0	0	1	292	0.00	29.923 
23:55	80.5	80.5	81.0	48	59.0	0	3	292	0.00	29.923 

CoCoRaHS
IN-AL-39
A2 Web Hosting
Creative Commons License
GoDaddy
search engine by freefind advanced

loaded 2018-11-15 15:59:57 • last modified 2010-11-18 10:43:29
Privacy PolicyDisclaimer
• wx.awcolley.com is powered by PmWiki v.2002016 •
• all content (unless otherwise noted) © 2018 A W Colley